Time;durP1;ratioP1;P1;durP2;ratioP2;P2;SDS_P1;SDS_P2;PMS_P1;PMS_P2;Temp;Humidity;BMP_temperature;BMP_pressure;BME280_temperature;BME280_humidity;BME280_pressure;Samples;Min_cycle;Max_cycle;Signal;HPM_P1;HPM_P2
2023/06/13 00:01:24;;;;;;;;;;;;;;;11.65;51.09;100645.06;5046516;28;19924;-73
2023/06/13 00:03:52;;;;;;;;;;;;;;;11.60;51.47;100646.66;5044231;28;20338;-73
2023/06/13 00:06:18;;;;;;;;;;;;;;;11.58;51.47;100643.34;5044451;28;19986;-73
2023/06/13 00:08:44;;;;;;;;;;;;;;;11.56;51.46;100642.00;5043665;28;20403;-73
2023/06/13 00:11:10;;;;;;;;;;;;;;;11.53;51.57;100639.75;5053397;28;19970;-73
2023/06/13 00:13:39;;;;;;;;;;;;;;;11.50;52.12;100643.84;5025837;28;19928;-72
2023/06/13 00:16:05;;;;;;;;;;;;;;;11.51;51.84;100636.44;5039117;28;19971;-73
2023/06/13 00:18:31;;;;;;;;;;;;;;;11.52;51.06;100646.31;5043506;28;20020;-73
2023/06/13 00:20:59;;;;;;;;;;;;;;;11.53;51.35;100639.75;5042581;28;20026;-72
2023/06/13 00:23:25;;;;;;;;;;;;;;;11.51;50.83;100631.81;5010400;28;20422;-72
2023/06/13 00:25:51;;;;;;;;;;;;;;;11.49;51.17;100636.72;5044353;28;20407;-72
2023/06/13 00:28:17;;;;;;;;;;;;;;;11.42;51.70;100641.56;5048944;28;19924;-73
2023/06/13 00:30:43;;;;;;;;;;;;;;;11.35;51.70;100641.78;5046951;28;20036;-73
2023/06/13 00:33:11;;;;;;;;;;;;;;;11.31;52.28;100638.72;5047294;28;19928;-73
2023/06/13 00:35:37;;;;;;;;;;;;;;;11.27;52.52;100642.25;5045044;28;19931;-73
2023/06/13 00:38:06;;;;;;;;;;;;;;;11.28;52.64;100639.25;5047075;28;19924;-72
2023/06/13 00:40:32;;;;;;;;;;;;;;;11.22;53.21;100629.34;5046247;28;19978;-73
2023/06/13 00:42:58;;;;;;;;;;;;;;;11.20;53.04;100643.28;5049969;28;20387;-73
2023/06/13 00:45:27;;;;;;;;;;;;;;;11.19;52.78;100632.59;5043968;28;19936;-70
2023/06/13 00:47:55;;;;;;;;;;;;;;;11.19;52.59;100633.41;5048751;28;19925;-70
2023/06/13 00:50:26;;;;;;;;;;;;;;;11.20;52.43;100628.78;5046524;28;20844;-69
2023/06/13 00:52:52;;;;;;;;;;;;;;;11.20;52.38;100634.25;5047097;28;19925;-70
2023/06/13 00:55:20;;;;;;;;;;;;;;;11.15;53.68;100632.28;5045418;28;19947;-70
2023/06/13 00:57:48;;;;;;;;;;;;;;;11.14;53.50;100633.38;5029025;28;19931;-69
2023/06/13 01:00:15;;;;;;;;;;;;;;;11.12;53.77;100635.56;5028302;28;19932;-69
2023/06/13 01:02:45;;;;;;;;;;;;;;;11.09;54.34;100630.59;5063516;28;19928;-69
2023/06/13 01:05:12;;;;;;;;;;;;;;;11.09;54.14;100632.50;5046556;28;19974;-69
2023/06/13 01:07:38;;;;;;;;;;;;;;;11.09;54.30;100627.88;5044339;28;19964;-70
2023/06/13 01:10:05;;;;;;;;;;;;;;;11.07;55.02;100630.00;5048091;28;19924;-69
2023/06/13 01:12:35;;;;;;;;;;;;;;;11.09;55.06;100633.34;5039557;28;19970;-69
2023/06/13 01:15:04;;;;;;;;;;;;;;;11.11;54.70;100627.59;5012996;28;19929;-70
2023/06/13 01:17:34;;;;;;;;;;;;;;;11.15;54.81;100632.28;5045119;28;19963;-69
2023/06/13 01:20:05;;;;;;;;;;;;;;;11.15;54.86;100632.28;5031284;28;20027;-70
2023/06/13 01:22:37;;;;;;;;;;;;;;;11.17;54.75;100629.31;5046757;28;19924;-68
2023/06/13 01:25:08;;;;;;;;;;;;;;;11.04;54.54;100608.63;5044673;28;20024;-69
2023/06/13 01:27:36;;;;;;;;;;;;;;;11.19;54.75;100632.59;5048337;28;20027;-69
2023/06/13 01:30:03;;;;;;;;;;;;;;;11.23;54.19;100633.75;5046433;28;19924;-70
2023/06/13 01:32:31;;;;;;;;;;;;;;;11.22;54.17;100632.09;5076354;28;20027;-69
2023/06/13 01:34:57;;;;;;;;;;;;;;;11.23;54.08;100631.00;5045499;28;20346;-69
2023/06/13 01:37:23;;;;;;;;;;;;;;;11.24;54.56;100629.91;5046708;28;19924;-70
2023/06/13 01:39:49;;;;;;;;;;;;;;;11.27;54.40;100631.31;5046677;28;20343;-70
2023/06/13 01:42:15;;;;;;;;;;;;;;;11.26;54.78;100626.94;5045054;28;19931;-69
2023/06/13 01:44:42;;;;;;;;;;;;;;;11.28;54.38;100625.56;5046515;28;19970;-70
2023/06/13 01:47:12;;;;;;;;;;;;;;;11.28;54.22;100628.31;5040455;28;19924;-69
2023/06/13 01:49:44;;;;;;;;;;;;;;;11.31;54.04;100630.50;5044733;28;19932;-69
2023/06/13 01:52:15;;;;;;;;;;;;;;;11.31;54.51;100625.03;5043837;28;20377;-69
2023/06/13 01:54:45;;;;;;;;;;;;;;;11.34;55.07;100634.66;5043438;28;19924;-70
2023/06/13 01:57:14;;;;;;;;;;;;;;;11.31;55.43;100626.97;5027697;28;19932;-70
2023/06/13 01:59:41;;;;;;;;;;;;;;;11.33;55.80;100633.00;5045543;28;19995;-70
2023/06/13 02:02:09;;;;;;;;;;;;;;;11.36;55.42;100635.22;5045246;28;20154;-70
2023/06/13 02:04:39;;;;;;;;;;;;;;;11.41;54.38;100631.72;5011725;28;20106;-70
2023/06/13 02:07:05;;;;;;;;;;;;;;;11.42;54.37;100638.84;5045049;28;19924;-70
2023/06/13 02:09:31;;;;;;;;;;;;;;;11.46;53.97;100639.97;5044740;28;19951;-72
2023/06/13 02:11:56;;;;;;;;;;;;;;;11.51;54.42;100640.03;5029717;28;19924;-72
2023/06/13 02:14:23;;;;;;;;;;;;;;;11.53;54.73;100645.22;5045675;28;20446;-73
2023/06/13 02:16:48;;;;;;;;;;;;;;;11.55;54.25;100637.56;5044291;28;19936;-72
2023/06/13 02:19:15;;;;;;;;;;;;;;;11.59;54.01;100641.47;5046690;28;19928;-73
2023/06/13 02:21:44;;;;;;;;;;;;;;;11.60;54.19;100645.84;5045363;28;19931;-72
2023/06/13 02:24:10;;;;;;;;;;;;;;;11.68;53.50;100644.53;5047393;28;19936;-72
2023/06/13 02:26:39;;;;;;;;;;;;;;;11.72;52.97;100651.97;5040362;28;20510;-72
2023/06/13 02:29:05;;;;;;;;;;;;;;;11.75;53.55;100648.72;5047321;28;20399;-72
2023/06/13 02:31:35;;;;;;;;;;;;;;;11.81;53.17;100638.63;5046254;28;19925;-74
2023/06/13 02:34:01;;;;;;;;;;;;;;;11.89;52.45;100651.81;5045606;28;19928;-72
2023/06/13 02:36:28;;;;;;;;;;;;;;;11.93;52.29;100652.13;5044527;28;20506;-73
2023/06/13 02:38:53;;;;;;;;;;;;;;;11.96;52.22;100643.38;5043718;28;19971;-72
2023/06/13 02:41:19;;;;;;;;;;;;;;;12.00;52.02;100640.94;5047558;28;20352;-72
2023/06/13 02:43:45;;;;;;;;;;;;;;;11.98;52.66;100646.66;5044751;28;19979;-72
2023/06/13 02:46:11;;;;;;;;;;;;;;;11.96;52.65;100639.81;5023380;28;20031;-73
2023/06/13 02:48:37;;;;;;;;;;;;;;;12.02;52.60;100642.38;5045270;28;20019;-73
2023/06/13 02:51:03;;;;;;;;;;;;;;;12.08;51.64;100645.94;5042213;28;19955;-73
2023/06/13 02:53:30;;;;;;;;;;;;;;;12.14;52.05;100649.53;5040244;28;20550;-72
2023/06/13 02:55:56;;;;;;;;;;;;;;;12.18;52.15;100645.19;5043212;28;19924;-73
2023/06/13 02:58:21;;;;;;;;;;;;;;;12.26;51.47;100652.09;5024846;28;19924;-73
2023/06/13 03:00:48;;;;;;;;;;;;;;;12.28;51.45;100655.41;5043371;28;20403;-73
2023/06/13 03:03:18;;;;;;;;;;;;;;;12.25;51.77;100656.75;5044454;28;19924;-73
2023/06/13 03:05:47;;;;;;;;;;;;;;;12.29;51.60;100655.13;5025706;28;19924;-72
2023/06/13 03:08:18;;;;;;;;;;;;;;;12.36;51.46;100657.63;5043067;28;19928;-73
2023/06/13 03:10:48;;;;;;;;;;;;;;;12.41;51.12;100656.84;5047459;28;20020;-72
2023/06/13 03:13:16;;;;;;;;;;;;;;;12.47;51.08;100653.84;5041770;28;19931;-72
2023/06/13 03:15:45;;;;;;;;;;;;;;;12.55;51.00;100649.78;5025601;28;19925;-72
2023/06/13 03:18:12;;;;;;;;;;;;;;;12.57;50.83;100653.06;5045759;28;19925;-72
2023/06/13 03:20:37;;;;;;;;;;;;;;;12.63;50.53;100659.41;5041172;28;19924;-73
2023/06/13 03:23:05;;;;;;;;;;;;;;;12.69;50.31;100647.34;5042327;28;20464;-73
2023/06/13 03:25:31;;;;;;;;;;;;;;;12.79;49.99;100656.72;5027315;28;20228;-72
2023/06/13 03:27:58;;;;;;;;;;;;;;;12.87;49.37;100654.28;5047244;28;19931;-70
2023/06/13 03:30:24;;;;;;;;;;;;;;;12.95;49.84;100654.84;5042305;28;20380;-70
2023/06/13 03:32:54;;;;;;;;;;;;;;;13.02;49.91;100660.91;5043081;28;19924;-70
2023/06/13 03:35:22;;;;;;;;;;;;;;;13.11;49.88;100655.72;5041577;28;20366;-69
2023/06/13 03:37:48;;;;;;;;;;;;;;;13.17;49.69;100649.13;5042968;28;19929;-70
2023/06/13 03:40:14;;;;;;;;;;;;;;;13.20;49.44;100651.38;5044619;28;20288;-70
2023/06/13 03:42:40;;;;;;;;;;;;;;;13.21;48.87;100654.91;5042484;28;19929;-69
2023/06/13 03:45:08;;;;;;;;;;;;;;;13.22;48.81;100657.41;5041144;28;19924;-71
2023/06/13 03:47:34;;;;;;;;;;;;;;;13.30;48.66;100645.06;5010152;28;19925;-69
2023/06/13 03:50:00;;;;;;;;;;;;;;;13.41;48.34;100649.44;5042686;28;19928;-70
2023/06/13 03:52:26;;;;;;;;;;;;;;;13.49;48.53;100648.09;5042422;28;19952;-71
2023/06/13 03:54:52;;;;;;;;;;;;;;;13.58;48.01;100651.13;5041281;28;19968;-70
2023/06/13 03:57:18;;;;;;;;;;;;;;;13.60;47.76;100655.25;5042526;28;19924;-69
2023/06/13 03:59:44;;;;;;;;;;;;;;;13.64;47.67;100650.06;5046013;28;20059;-70
2023/06/13 04:02:13;;;;;;;;;;;;;;;13.70;47.98;100650.88;5042536;28;19964;-69
2023/06/13 04:04:42;;;;;;;;;;;;;;;13.78;47.97;100650.31;5043796;28;19931;-71
2023/06/13 04:07:08;;;;;;;;;;;;;;;13.83;47.47;100650.34;5025364;28;19924;-70
2023/06/13 04:09:33;;;;;;;;;;;;;;;13.88;46.97;100649.47;5040812;28;20343;-70
2023/06/13 04:12:00;;;;;;;;;;;;;;;13.94;46.98;100661.28;5024367;28;19971;-70
2023/06/13 04:14:26;;;;;;;;;;;;;;;13.96;46.42;100651.69;5043240;28;19971;-70
2023/06/13 04:16:52;;;;;;;;;;;;;;;14.02;45.93;100652.50;5045718;28;19936;-70
2023/06/13 04:19:20;;;;;;;;;;;;;;;14.07;45.68;100655.25;5043808;28;19924;-70
2023/06/13 04:21:46;;;;;;;;;;;;;;;14.16;45.79;100661.00;5043523;28;20418;-69
2023/06/13 04:24:14;;;;;;;;;;;;;;;14.23;45.16;100652.47;5037846;28;19931;-70
2023/06/13 04:26:40;;;;;;;;;;;;;;;14.31;45.19;100651.91;5056174;28;19978;-70
2023/06/13 04:29:07;;;;;;;;;;;;;;;14.39;44.63;100653.25;5025509;28;20484;-72
2023/06/13 04:31:35;;;;;;;;;;;;;;;14.46;44.23;100651.00;5045263;28;19925;-73
2023/06/13 04:34:03;;;;;;;;;;;;;;;14.53;44.15;100648.81;5026675;28;20435;-73
2023/06/13 04:36:33;;;;;;;;;;;;;;;14.59;43.91;100641.31;5042954;28;20039;-73
2023/06/13 04:39:01;;;;;;;;;;;;;;;14.63;43.77;100647.09;5045092;28;19925;-74
2023/06/13 04:41:27;;;;;;;;;;;;;;;14.71;44.07;100643.78;5041371;28;19924;-74
2023/06/13 04:43:53;;;;;;;;;;;;;;;14.80;43.71;100641.28;5044746;28;20299;-72
2023/06/13 04:46:18;;;;;;;;;;;;;;;14.85;43.44;100639.34;5042981;28;20369;-73
2023/06/13 04:48:44;;;;;;;;;;;;;;;14.88;43.36;100638.75;5044791;28;20407;-73
2023/06/13 04:51:10;;;;;;;;;;;;;;;14.93;42.85;100639.84;5043203;28;20379;-74
2023/06/13 04:53:38;;;;;;;;;;;;;;;14.95;42.38;100635.69;5025258;28;20388;-70
2023/06/13 04:56:04;;;;;;;;;;;;;;;14.93;42.05;100629.66;5041380;28;19924;-70
2023/06/13 04:58:30;;;;;;;;;;;;;;;14.94;41.96;100624.97;5044191;28;19978;-71
2023/06/13 05:00:58;;;;;;;;;;;;;;;15.01;42.40;100631.00;5043539;28;19931;-70
2023/06/13 05:03:25;;;;;;;;;;;;;;;15.09;42.33;100632.31;5041546;28;20380;-70
2023/06/13 05:05:51;;;;;;;;;;;;;;;15.20;41.87;100624.81;5041991;28;20329;-70
2023/06/13 05:08:21;;;;;;;;;;;;;;;15.25;41.32;100613.75;5041862;28;19931;-69
2023/06/13 05:10:48;;;;;;;;;;;;;;;15.30;41.29;100631.06;5043998;28;19928;-70
2023/06/13 05:13:14;;;;;;;;;;;;;;;15.40;41.20;100618.34;5044792;28;19925;-70
2023/06/13 05:15:42;;;;;;;;;;;;;;;15.45;40.79;100624.63;5023456;28;19928;-70
2023/06/13 05:18:12;;;;;;;;;;;;;;;15.45;40.47;100612.78;5040431;28;19925;-71
2023/06/13 05:20:38;;;;;;;;;;;;;;;15.45;39.99;100608.09;5047823;28;19971;-70
2023/06/13 05:23:03;;;;;;;;;;;;;;;15.51;40.33;100619.06;5066076;28;20406;-70
2023/06/13 05:25:31;;;;;;;;;;;;;;;15.56;40.38;100608.84;5031811;28;19971;-70
2023/06/13 05:27:59;;;;;;;;;;;;;;;15.63;40.25;100610.41;5031206;28;20307;-70
2023/06/13 05:30:25;;;;;;;;;;;;;;;15.57;39.83;100590.34;5063820;28;19951;-71
2023/06/13 05:32:51;;;;;;;;;;;;;;;15.78;39.98;100607.53;5048549;28;20408;-70
2023/06/13 05:35:17;;;;;;;;;;;;;;;15.86;39.60;100609.66;5045785;28;19925;-71
2023/06/13 05:37:43;;;;;;;;;;;;;;;15.95;39.85;100612.63;5038221;28;19932;-69
2023/06/13 05:40:10;;;;;;;;;;;;;;;15.95;39.40;100609.88;5038849;28;19951;-70
2023/06/13 05:42:36;;;;;;;;;;;;;;;16.00;39.48;100612.56;5034784;28;19932;-71
2023/06/13 05:45:04;;;;;;;;;;;;;;;16.02;38.83;100606.78;5027073;28;19932;-71
2023/06/13 05:47:30;;;;;;;;;;;;;;;16.03;39.36;100622.22;5026757;28;20028;-71
2023/06/13 05:49:57;;;;;;;;;;;;;;;16.09;39.00;100607.25;5027882;28;19924;-71
2023/06/13 05:52:23;;;;;;;;;;;;;;;16.19;38.97;100608.25;5044181;28;20382;-71
2023/06/13 05:54:48;;;;;;;;;;;;;;;16.26;38.61;100609.56;5041036;28;19931;-70
2023/06/13 05:57:15;;;;;;;;;;;;;;;16.29;38.96;100610.88;5021463;28;19925;-70
2023/06/13 05:59:41;;;;;;;;;;;;;;;16.30;38.46;100605.09;5038150;28;19929;-70
2023/06/13 06:02:12;;;;;;;;;;;;;;;16.30;38.51;100602.31;5027548;28;20322;-71
2023/06/13 06:04:37;;;;;;;;;;;;;;;16.34;37.96;100594.28;5048087;28;19932;-71
2023/06/13 06:07:04;;;;;;;;;;;;;;;16.37;37.49;100596.44;5045363;28;19925;-73
2023/06/13 06:09:29;;;;;;;;;;;;;;;16.37;36.99;100593.69;5044539;28;20050;-73
2023/06/13 06:11:55;;;;;;;;;;;;;;;16.37;36.99;100590.09;5041719;28;20027;-73
2023/06/13 06:14:21;;;;;;;;;;;;;;;16.40;36.99;100573.78;5043797;28;19928;-74
2023/06/13 06:16:47;;;;;;;;;;;;;;;16.40;36.45;100589.53;5025419;28;20599;-73
2023/06/13 06:19:15;;;;;;;;;;;;;;;16.43;36.51;100580.66;5010468;28;19925;-73
2023/06/13 06:21:41;;;;;;;;;;;;;;;16.51;36.55;100592.97;5044799;28;19952;-73
2023/06/13 06:24:07;;;;;;;;;;;;;;;16.69;36.09;100592.19;5047196;28;19940;-73
2023/06/13 06:26:33;;;;;;;;;;;;;;;16.87;36.02;100584.19;5044590;28;19925;-73
2023/06/13 06:28:58;;;;;;;;;;;;;;;17.06;35.29;100583.41;5028549;28;20003;-70
2023/06/13 06:31:24;;;;;;;;;;;;;;;17.25;34.79;100581.47;5045526;28;19932;-69
2023/06/13 06:33:50;;;;;;;;;;;;;;;17.37;34.31;100580.97;5040465;28;20027;-69
2023/06/13 06:36:17;;;;;;;;;;;;;;;17.47;34.35;100576.38;5034742;28;20031;-69
2023/06/13 06:38:43;;;;;;;;;;;;;;;17.68;34.02;100568.56;5030167;28;20106;-70
2023/06/13 06:41:09;;;;;;;;;;;;;;;17.72;33.54;100573.19;5045925;28;19925;-71
2023/06/13 06:43:35;;;;;;;;;;;;;;;17.74;33.87;100559.06;5030037;28;19978;-69
2023/06/13 06:46:07;;;;;;;;;;;;;;;17.92;33.55;100570.34;5040665;28;19929;-70
2023/06/13 06:48:33;;;;;;;;;;;;;;;18.04;33.41;100562.41;5026736;28;19928;-70
2023/06/13 06:50:59;;;;;;;;;;;;;;;18.20;32.85;100564.88;5044383;28;19968;-74
2023/06/13 06:53:26;;;;;;;;;;;;;;;18.21;32.73;100569.28;5041671;28;19964;-73
2023/06/13 06:55:52;;;;;;;;;;;;;;;18.20;32.83;100562.91;5055545;28;20303;-73
2023/06/13 06:58:18;;;;;;;;;;;;;;;18.24;32.71;100565.88;5030027;28;19925;-73
2023/06/13 07:00:44;;;;;;;;;;;;;;;18.34;32.56;100551.84;5030105;28;19925;-73
2023/06/13 07:03:10;;;;;;;;;;;;;;;18.33;32.37;100566.78;5001308;28;19931;-74
2023/06/13 07:05:36;;;;;;;;;;;;;;;18.38;32.33;100577.75;5040043;28;19925;-74
2023/06/13 07:08:02;;;;;;;;;;;;;;;18.45;32.58;100570.97;5036838;28;19925;-74
2023/06/13 07:10:29;;;;;;;;;;;;;;;18.53;32.30;100556.41;5042321;28;20360;-70
2023/06/13 07:12:56;;;;;;;;;;;;;;;18.59;32.38;100560.69;5044592;28;20035;-74
2023/06/13 07:15:23;;;;;;;;;;;;;;;18.69;32.46;100559.66;5055930;28;19924;-74
2023/06/13 07:17:48;;;;;;;;;;;;;;;18.80;32.01;100558.31;5036967;28;20373;-74
2023/06/13 07:20:14;;;;;;;;;;;;;;;18.93;32.03;100556.59;5024208;28;19994;-74
2023/06/13 07:22:41;;;;;;;;;;;;;;;18.98;31.71;100559.28;5023574;28;20471;-73
2023/06/13 07:25:07;;;;;;;;;;;;;;;18.98;31.64;100553.72;5044843;28;19925;-74
2023/06/13 07:27:34;;;;;;;;;;;;;;;19.15;32.04;100555.03;5030644;28;20447;-70
2023/06/13 07:30:00;;;;;;;;;;;;;;;19.30;31.08;100528.88;5025379;28;19931;-70
2023/06/13 07:32:26;;;;;;;;;;;;;;;19.33;30.55;100547.63;5024035;28;19928;-74
2023/06/13 07:34:51;;;;;;;;;;;;;;;19.30;31.10;100553.03;5056224;28;19971;-73
2023/06/13 07:37:17;;;;;;;;;;;;;;;19.46;30.95;100547.88;5041676;28;19928;-74
2023/06/13 07:39:43;;;;;;;;;;;;;;;19.53;30.82;100531.63;5024063;28;19925;-73
2023/06/13 07:42:10;;;;;;;;;;;;;;;19.68;30.54;100539.53;5039407;28;20019;-73
2023/06/13 07:44:37;;;;;;;;;;;;;;;19.92;30.00;100541.13;5038282;28;19928;-73
2023/06/13 07:47:03;;;;;;;;;;;;;;;19.99;29.55;100540.66;5041041;28;19930;-73
2023/06/13 07:49:30;;;;;;;;;;;;;;;20.14;29.54;100533.88;5041205;28;19979;-73
2023/06/13 07:51:56;;;;;;;;;;;;;;;20.31;29.07;100527.53;5042472;28;20433;-74
2023/06/13 07:54:22;;;;;;;;;;;;;;;20.40;28.90;100528.38;5040975;28;19925;-74
2023/06/13 07:56:49;;;;;;;;;;;;;;;20.55;28.94;100529.06;5025119;28;20493;-73
2023/06/13 07:59:16;;;;;;;;;;;;;;;20.80;28.53;100523.81;5039915;28;19929;-73
2023/06/13 08:01:44;;;;;;;;;;;;;;;20.92;27.69;100512.91;5039703;28;19924;-73
2023/06/13 08:04:10;;;;;;;;;;;;;;;20.89;28.05;100526.63;5039902;28;20031;-73
2023/06/13 08:06:39;;;;;;;;;;;;;;;20.81;27.95;100508.81;5043270;28;20027;-73
2023/06/13 08:09:08;;;;;;;;;;;;;;;20.90;27.83;100522.72;5057307;28;19925;-73
2023/06/13 08:11:34;;;;;;;;;;;;;;;20.80;27.67;100510.78;5036950;28;20376;-73
2023/06/13 08:14:00;;;;;;;;;;;;;;;20.86;27.65;100511.44;5057964;28;19929;-74
2023/06/13 08:16:26;;;;;;;;;;;;;;;21.23;27.57;100516.66;5039933;28;19928;-74
2023/06/13 08:18:53;;;;;;;;;;;;;;;21.74;26.91;100511.28;5025326;28;19963;-74
2023/06/13 08:21:19;;;;;;;;;;;;;;;22.31;26.24;100511.97;5057279;28;19925;-74
2023/06/13 08:23:45;;;;;;;;;;;;;;;22.59;26.08;100499.50;5040687;28;19932;-73
2023/06/13 08:26:11;;;;;;;;;;;;;;;22.96;25.85;100505.28;5044286;28;19967;-73
2023/06/13 08:28:37;;;;;;;;;;;;;;;23.44;24.81;100493.81;5025108;28;20029;-73
2023/06/13 08:31:03;;;;;;;;;;;;;;;23.51;24.88;100494.06;5059572;28;19963;-73
2023/06/13 08:33:29;;;;;;;;;;;;;;;23.75;24.86;100496.06;5031422;28;19925;-74
2023/06/13 08:35:56;;;;;;;;;;;;;;;23.73;24.09;100495.59;5041413;28;19932;-73
2023/06/13 08:38:24;;;;;;;;;;;;;;;23.61;24.60;100499.19;5039285;28;20319;-70
2023/06/13 08:40:50;;;;;;;;;;;;;;;23.71;24.16;100492.34;5052904;28;19929;-71
2023/06/13 08:43:16;;;;;;;;;;;;;;;23.74;24.37;100472.09;5038150;28;20323;-71
2023/06/13 08:45:41;;;;;;;;;;;;;;;23.81;23.94;100465.13;5035443;28;19925;-70
2023/06/13 08:48:08;;;;;;;;;;;;;;;23.92;23.78;100469.91;5039746;28;19925;-70
2023/06/13 08:50:33;;;;;;;;;;;;;;;24.02;24.06;100470.56;5044628;28;19929;-70
2023/06/13 08:53:01;;;;;;;;;;;;;;;24.37;23.49;100467.31;5064394;28;19924;-73
2023/06/13 08:55:27;;;;;;;;;;;;;;;24.71;23.14;100462.31;5042022;28;19951;-73
2023/06/13 08:57:53;;;;;;;;;;;;;;;24.81;22.80;100461.00;5041042;28;19925;-73
2023/06/13 09:00:19;;;;;;;;;;;;;;;24.69;22.89;100466.59;5041426;28;19924;-73
2023/06/13 09:02:46;;;;;;;;;;;;;;;24.72;22.91;100461.13;5044505;28;19925;-73
2023/06/13 09:05:13;;;;;;;;;;;;;;;24.96;22.64;100465.00;5045922;28;19924;-73
2023/06/13 09:07:39;;;;;;;;;;;;;;;25.58;22.15;100456.25;5046390;28;19925;-73
2023/06/13 09:10:10;;;;;;;;;;;;;;;25.99;21.73;100452.41;5029148;28;19969;-73
2023/06/13 09:12:36;;;;;;;;;;;;;;;26.31;21.33;100446.75;4689912;28;10000283;-73
2023/06/13 09:15:02;;;;;;;;;;;;;;;26.54;21.02;100434.81;5037396;28;19929;-73
2023/06/13 09:17:28;;;;;;;;;;;;;;;26.54;21.04;100432.81;5037080;28;19925;-73
2023/06/13 09:19:54;;;;;;;;;;;;;;;26.51;20.98;100438.34;5040184;28;19924;-70
2023/06/13 09:22:20;;;;;;;;;;;;;;;27.04;20.85;100433.03;5042885;28;19940;-74
2023/06/13 09:24:47;;;;;;;;;;;;;;;27.44;20.33;100438.50;5041088;28;19925;-70
2023/06/13 09:27:14;;;;;;;;;;;;;;;27.77;20.09;100427.84;5042146;28;19925;-70
2023/06/13 09:29:40;;;;;;;;;;;;;;;27.95;19.94;100430.91;5031221;28;19925;-70
2023/06/13 09:32:08;;;;;;;;;;;;;;;27.79;20.04;100417.84;5037326;28;20422;-70
2023/06/13 09:34:34;;;;;;;;;;;;;;;27.74;20.13;100416.16;5040373;28;20346;-71
2023/06/13 09:37:00;;;;;;;;;;;;;;;27.48;20.09;100422.56;5040984;28;19932;-73
2023/06/13 09:39:27;;;;;;;;;;;;;;;27.57;19.91;100417.50;5036051;28;19933;-72
2023/06/13 09:41:54;;;;;;;;;;;;;;;28.17;19.30;100404.75;5033817;28;19924;-72
2023/06/13 09:44:21;;;;;;;;;;;;;;;28.73;18.85;100401.38;5036542;28;19924;-72
2023/06/13 09:46:48;;;;;;;;;;;;;;;29.22;18.38;100396.69;5035100;28;20011;-73
2023/06/13 09:49:16;;;;;;;;;;;;;;;29.52;18.06;100400.56;5032535;28;19924;-73
2023/06/13 09:51:41;;;;;;;;;;;;;;;29.38;18.01;100396.41;5036767;28;19931;-73
2023/06/13 09:54:07;;;;;;;;;;;;;;;29.67;17.92;100388.19;5029629;28;19928;-72
2023/06/13 09:56:33;;;;;;;;;;;;;;;30.00;17.31;100388.38;5041691;28;19966;-73
2023/06/13 09:59:00;;;;;;;;;;;;;;;29.95;17.43;100388.75;5041540;28;19929;-72
2023/06/13 10:01:29;;;;;;;;;;;;;;;30.11;17.32;100391.28;5028475;28;20604;-72
2023/06/13 10:03:55;;;;;;;;;;;;;;;30.55;16.67;100387.44;5043714;28;19925;-72
2023/06/13 10:06:22;;;;;;;;;;;;;;;30.58;16.57;100388.63;5041454;28;19924;-73
2023/06/13 10:08:48;;;;;;;;;;;;;;;30.53;16.75;100378.56;5026141;28;19986;-71
2023/06/13 10:11:15;;;;;;;;;;;;;;;30.96;16.35;100377.88;5045050;28;20405;-71
2023/06/13 10:13:45;;;;;;;;;;;;;;;30.39;16.66;100381.34;5040506;28;20011;-71
2023/06/13 10:16:12;;;;;;;;;;;;;;;29.70;17.39;100376.13;5042971;28;19929;-70
2023/06/13 10:18:41;;;;;;;;;;;;;;;29.95;17.31;100372.66;5041797;28;19929;-70
2023/06/13 10:21:08;;;;;;;;;;;;;;;29.89;16.61;100370.59;5043490;28;20023;-72
2023/06/13 10:23:40;;;;;;;;;;;;;;;29.98;16.84;100365.44;5025150;28;19932;-71
2023/06/13 10:26:08;;;;;;;;;;;;;;;30.32;16.90;100348.28;5041018;28;19964;-71
2023/06/13 10:28:40;;;;;;;;;;;;;;;30.99;16.71;100364.97;5042587;28;19924;-71
2023/06/13 10:31:11;;;;;;;;;;;;;;;31.25;16.38;100357.31;5042260;28;19931;-73
2023/06/13 10:33:50;;;;;;;;;;;;;;;31.15;16.00;100360.94;5042021;28;19935;-72
2023/06/13 10:36:20;;;;;;;;;;;;;;;31.07;16.17;100363.75;5075956;28;19932;-71
2023/06/13 10:39:19;;;;;;;;;;;;;;;30.71;16.90;100352.44;5034626;28;20015;-72
2023/06/13 10:41:56;;;;;;;;;;;;;;;31.21;15.93;100348.84;5042027;28;19924;-72
2023/06/13 10:44:26;;;;;;;;;;;;;;;31.11;16.28;100344.78;5038284;28;19925;-72
2023/06/13 10:46:52;;;;;;;;;;;;;;;31.59;16.25;100341.97;5043224;28;19968;-72
2023/06/13 10:49:19;;;;;;;;;;;;;;;31.78;16.00;100332.25;5041508;28;19959;-73
2023/06/13 10:51:45;;;;;;;;;;;;;;;31.64;15.83;100322.56;5040795;28;19925;-72
2023/06/13 10:54:11;;;;;;;;;;;;;;;31.18;16.26;100338.34;5043554;28;20020;-72
2023/06/13 10:56:39;;;;;;;;;;;;;;;31.01;16.13;100336.31;5025814;28;19925;-72
2023/06/13 10:59:05;;;;;;;;;;;;;;;30.72;16.58;100322.19;5044920;28;20273;-72
2023/06/13 11:01:31;;;;;;;;;;;;;;;30.93;16.31;100321.41;5036764;28;19929;-72
2023/06/13 11:04:05;;;;;;;;;;;;;;;31.75;15.65;100322.53;5045365;28;20388;-72
2023/06/13 11:06:32;;;;;;;;;;;;;;;31.88;15.52;100319.31;5037881;28;20406;-71
2023/06/13 11:09:08;;;;;;;;;;;;;;;31.90;15.24;100314.03;5041331;28;19924;-72
2023/06/13 11:11:38;;;;;;;;;;;;;;;32.46;15.04;100313.38;5040927;28;19992;-72
2023/06/13 11:14:06;;;;;;;;;;;;;;;32.53;14.98;100302.00;5040755;28;19924;-73
2023/06/13 11:16:35;;;;;;;;;;;;;;;32.75;15.09;100290.53;5040492;28;20410;-72
2023/06/13 11:19:04;;;;;;;;;;;;;;;33.13;14.54;100290.66;5025635;28;20031;-70
2023/06/13 11:21:31;;;;;;;;;;;;;;;33.74;14.23;100292.06;5044007;28;19948;-72
2023/06/13 11:23:58;;;;;;;;;;;;;;;34.37;13.84;100284.34;5028326;28;19960;-71
2023/06/13 11:26:25;;;;;;;;;;;;;;;34.42;14.07;100283.06;5027512;28;19925;-71
2023/06/13 11:28:51;;;;;;;;;;;;;;;34.55;13.72;100272.75;5040897;28;19928;-71
2023/06/13 11:31:17;;;;;;;;;;;;;;;34.72;13.29;100272.88;5042336;28;19935;-72
2023/06/13 11:33:45;;;;;;;;;;;;;;;34.53;13.43;100263.88;5043169;28;19929;-71
2023/06/13 11:36:11;;;;;;;;;;;;;;;34.64;13.08;100270.16;5044334;28;19929;-70
2023/06/13 11:38:42;;;;;;;;;;;;;;;34.73;13.55;100275.28;5023620;28;19932;-71
2023/06/13 11:41:09;;;;;;;;;;;;;;;35.08;13.24;100269.44;5038569;28;19934;-72
2023/06/13 11:43:35;;;;;;;;;;;;;;;34.51;12.99;100266.34;5041220;28;20396;-73
2023/06/13 11:46:01;;;;;;;;;;;;;;;34.85;13.00;100265.38;5035522;28;20063;-74
2023/06/13 11:48:27;;;;;;;;;;;;;;;35.68;12.65;100248.03;5036369;28;19932;-73
2023/06/13 11:51:07;;;;;;;;;;;;;;;35.92;12.49;100258.06;5025584;28;19924;-74
2023/06/13 11:53:32;;;;;;;;;;;;;;;35.78;12.85;100255.53;5024029;28;19924;-74
2023/06/13 11:56:05;;;;;;;;;;;;;;;35.81;12.56;100254.63;5028713;28;19932;-73
2023/06/13 11:58:31;;;;;;;;;;;;;;;35.21;12.96;100252.59;5037416;28;19964;-73
2023/06/13 12:00:57;;;;;;;;;;;;;;;35.07;13.41;100262.16;5041972;28;19952;-74
2023/06/13 12:03:23;;;;;;;;;;;;;;;35.66;12.86;100247.66;5025136;28;19928;-71
2023/06/13 12:05:50;;;;;;;;;;;;;;;36.06;12.82;100250.47;5040253;28;19971;-71
2023/06/13 12:08:16;;;;;;;;;;;;;;;36.57;12.31;100230.19;5023462;28;19925;-72
2023/06/13 12:10:46;;;;;;;;;;;;;;;36.75;11.92;100234.63;5038299;28;20184;-73
2023/06/13 12:13:14;;;;;;;;;;;;;;;36.37;12.19;100232.28;5004457;28;20308;-72
2023/06/13 12:15:40;;;;;;;;;;;;;;;35.73;12.23;100230.47;5038273;28;19931;-72
2023/06/13 12:18:06;;;;;;;;;;;;;;;35.87;11.92;100237.88;5034723;28;20094;-72
2023/06/13 12:20:36;;;;;;;;;;;;;;;35.66;12.20;100230.59;5032254;28;19946;-70
2023/06/13 12:23:02;;;;;;;;;;;;;;;35.41;12.27;100238.38;5047135;28;19947;-71
2023/06/13 12:25:28;;;;;;;;;;;;;;;35.48;12.49;100232.56;5028624;28;19925;-70
2023/06/13 12:27:55;;;;;;;;;;;;;;;35.07;12.18;100239.44;5044525;28;20032;-72
2023/06/13 12:30:22;;;;;;;;;;;;;;;34.88;12.20;100223.94;5045374;28;19924;-72
2023/06/13 12:32:50;;;;;;;;;;;;;;;35.30;12.02;100218.72;5041830;28;19951;-73
2023/06/13 12:35:18;;;;;;;;;;;;;;;35.38;11.99;100227.88;5042746;28;19928;-73